Flight Track Log - Related Links

Times and Time Zones

All times are in EDT time to prevent confusion due to time zone crossing. See the RPA4907 flight status page for this flight to view local times or setup timezone preferences in your user account.

Time Position Orientation Groundspeed Altitude Reporting Facility
EDT Latitude Longitude Course Direction KTS MPH feet Rate Location/Type
Sun 06:14:15 PM 38.5064 -107.7336 81° East 224 258 11,900  Level Denver Center
Sun 06:15:17 PM 38.5156 -107.6564 81° East 231 266 13,500 1,500 Climbing Denver Center
Sun 06:16:19 PM 38.5372 -107.5828 69° East 226 260 15,000 1,306 Climbing Denver Center
Sun 06:17:21 PM 38.5586 -107.5142 68° East 224 258 16,200 1,355 Climbing Denver Center
Sun 06:18:23 PM 38.6053 -107.4383 52° Northeast 222 255 17,800 1,113 Climbing Denver Center
Sun 06:19:25 PM 38.6422 -107.3703 55° Northeast 227 261 18,500 919 Climbing Denver Center
Sun 06:20:27 PM 38.6825 -107.2986 54° Northeast 241 277 19,700 1,113 Climbing Denver Center
Sun 06:21:29 PM 38.7219 -107.2300 54° Northeast 241 277 20,800 1,056 Climbing Denver Center
Sun 06:22:32 PM 38.7622 -107.1558 55° Northeast 243 280 21,900 1,104 Climbing Denver Center
Sun 06:23:34 PM 38.7983 -107.0842 57° Northeast 242 278 23,100 774 Climbing Denver Center
Sun 06:24:36 PM 38.8158 -107.0017 75° East 240 276 23,500 613 Climbing Denver Center
Sun 06:26:40 PM 38.8558 -106.8128 69° East 249 287 25,000 484 Climbing Denver Center
Sun 06:27:42 PM 38.8764 -106.7175 74° East 267 307 25,000  Level Denver Center
Sun 06:28:44 PM 38.9011 -106.6117 73° East 289 333 25,000  Level Denver Center
Sun 06:29:46 PM 38.9247 -106.5025 74° East 306 352 25,000  Level Denver Center
Sun 06:30:48 PM 38.9578 -106.3908 69° East 320 368 25,000  Level Denver Center
Sun 06:31:50 PM 39.0064 -106.2583 65° Northeast 337 388 25,000  Level Denver Center
Sun 06:32:53 PM 39.0469 -106.1472 65° Northeast 337 388 25,000  Level Denver Center
Sun 06:33:55 PM 39.0869 -106.0389 65° Northeast 337 388 25,000 -145 Level Denver Center
Sun 06:34:57 PM 39.1267 -105.9267 65° Northeast 342 394 24,700 -435 Descending Denver Center
Sun 06:35:59 PM 39.1681 -105.8094 65° Northeast 355 409 24,100 -900 Descending Denver Center
Sun 06:37:37 PM 39.2500 -105.6167 61° Northeast 327 376 22,300 -1,658 Descending Denver TRACON
Sun 06:38:31 PM 39.2833 -105.5167 67° East 321 369 19,900 -2,523 Descending Denver TRACON
Sun 06:39:05 PM 39.3014 -105.4669 65° Northeast 322 371 18,600 -2,289 Descending Denver Center
Sun 06:40:08 PM 39.3467 -105.3572 62° Northeast 323 372 16,200 -2,160 Descending Denver Center
Sun 06:41:10 PM 39.3847 -105.2528 65° Northeast 321 369 14,100 -1,548 Descending Denver Center
Sun 06:42:12 PM 39.4247 -105.1464 64° Northeast 310 357 13,000 -532 Descending Denver Center
Sun 06:43:14 PM 39.4581 -105.0575 64° Northeast 280 322 13,000 -194 Level Denver Center
Sun 06:44:16 PM 39.4903 -104.9636 66° East 271 312 12,600 -677 Descending Denver Center
Sun 06:45:18 PM 39.5419 -104.9017 43° Northeast 257 296 11,600 -1,016 Descending Denver Center
Sun 06:46:20 PM 39.6022 -104.8500 33° Northeast 258 297 10,500 -1,210 Descending Denver Center
Sun 06:47:22 PM 39.6622 -104.7958 35° Northeast 243 280 9,100 -1,500 Descending Denver Center
Sun 06:48:24 PM 39.7158 -104.7475 35° Northeast 239 275 7,400 -834 Descending Denver Center
Sun 06:50:29 PM 39.8064 -104.6883 27° Northeast 141 162 6,500 -513 Descending Denver Center
Sun 06:51:31 PM 39.8428 -104.6881 360° North 126 145 5,800 -581 Descending Denver Center
Sun 06:52:33 PM 39.8753 -104.6872 North 121 139 5,300 -484 Descending Denver Center
Sun 06:54:00 PM 39.8617 -104.6732 339° North  Level Estimated
Sun 07:01:00 PM 39.8617 -104.6732 339° North  Level Estimated
Sun 07:02:00 PM 39.8617 -104.6732 339° North  Level Estimated
Sun 07:03:00 PM 39.8617 -104.6732 339° North  Level Estimated

Login

Don't have an account? Register now (free) for customized features, flight alerts, and more!